sensor_id;sensor_type;location;lat;lon;timestamp;pressure;altitude;pressure_sealevel;temperature;humidity
57894;BME280;43710;47.460;19.034;2023-03-03T04:58:07;100646.72;;;7.03;74.79
57894;BME280;43710;47.460;19.034;2023-03-03T05:01:12;100646.72;;;7.03;74.79
57894;BME280;43710;47.460;19.034;2023-03-03T05:04:18;100656.78;;;6.52;76.06
57894;BME280;43710;47.460;19.034;2023-03-03T05:07:21;100652.12;;;6.43;79.60
57894;BME280;43710;47.460;19.034;2023-03-03T05:10:23;100654.84;;;6.48;78.70
57894;BME280;43710;47.460;19.034;2023-03-03T05:13:26;100656.91;;;6.63;80.62
57894;BME280;43710;47.460;19.034;2023-03-03T05:16:28;100652.44;;;6.46;77.87
57894;BME280;43710;47.460;19.034;2023-03-03T05:19:31;100645.12;;;6.58;75.84
57894;BME280;43710;47.460;19.034;2023-03-03T05:22:35;100654.44;;;6.78;74.90
57894;BME280;43710;47.460;19.034;2023-03-03T05:25:39;100650.13;;;6.55;81.18
57894;BME280;43710;47.460;19.034;2023-03-03T05:28:42;100652.94;;;6.65;75.54
57894;BME280;43710;47.460;19.034;2023-03-03T05:31:45;100654.13;;;6.74;75.09
57894;BME280;43710;47.460;19.034;2023-03-03T05:34:47;100658.00;;;6.89;74.77
57894;BME280;43710;47.460;19.034;2023-03-03T05:37:50;100657.78;;;6.90;73.99
57894;BME280;43710;47.460;19.034;2023-03-03T05:40:53;100664.59;;;7.03;73.45
57894;BME280;43710;47.460;19.034;2023-03-03T05:43:56;100673.69;;;7.07;72.92
57894;BME280;43710;47.460;19.034;2023-03-03T05:46:58;100672.62;;;7.08;72.71
57894;BME280;43710;47.460;19.034;2023-03-03T05:50:01;100668.44;;;7.12;72.61
57894;BME280;43710;47.460;19.034;2023-03-03T05:53:03;100677.25;;;7.13;73.00
57894;BME280;43710;47.460;19.034;2023-03-03T05:56:06;100664.72;;;7.13;72.96
57894;BME280;43710;47.460;19.034;2023-03-03T05:59:08;100663.41;;;7.16;73.34
57894;BME280;43710;47.460;19.034;2023-03-03T06:02:11;100665.88;;;7.22;72.68
57894;BME280;43710;47.460;19.034;2023-03-03T06:05:13;100669.84;;;7.20;74.04
57894;BME280;43710;47.460;19.034;2023-03-03T06:08:15;100663.72;;;7.19;73.18
57894;BME280;43710;47.460;19.034;2023-03-03T06:11:18;100664.56;;;7.25;79.40
57894;BME280;43710;47.460;19.034;2023-03-03T06:14:21;100667.28;;;7.30;74.41
57894;BME280;43710;47.460;19.034;2023-03-03T06:17:25;100674.69;;;7.23;79.32
57894;BME280;43710;47.460;19.034;2023-03-03T06:20:27;100675.84;;;7.32;77.25
57894;BME280;43710;47.460;19.034;2023-03-03T06:23:30;100674.31;;;7.41;74.05
57894;BME280;43710;47.460;19.034;2023-03-03T06:26:32;100680.28;;;7.48;73.54
57894;BME280;43710;47.460;19.034;2023-03-03T06:29:35;100677.16;;;7.57;72.53
57894;BME280;43710;47.460;19.034;2023-03-03T06:32:37;100677.66;;;7.53;73.57
57894;BME280;43710;47.460;19.034;2023-03-03T06:35:40;100682.41;;;7.51;77.08
57894;BME280;43710;47.460;19.034;2023-03-03T06:38:43;100683.97;;;7.74;72.35
57894;BME280;43710;47.460;19.034;2023-03-03T06:41:45;100682.66;;;7.77;72.40
57894;BME280;43710;47.460;19.034;2023-03-03T06:44:48;100685.00;;;7.68;73.00
57894;BME280;43710;47.460;19.034;2023-03-03T06:47:50;100683.88;;;7.64;74.32
57894;BME280;43710;47.460;19.034;2023-03-03T06:50:52;100689.28;;;7.69;77.22
57894;BME280;43710;47.460;19.034;2023-03-03T06:53:56;100695.06;;;7.88;79.74
57894;BME280;43710;47.460;19.034;2023-03-03T06:57:12;100691.25;;;7.84;80.39
57894;BME280;43710;47.460;19.034;2023-03-03T07:00:21;100700.91;;;7.85;74.23
57894;BME280;43710;47.460;19.034;2023-03-03T07:03:32;100701.78;;;7.96;79.09
57894;BME280;43710;47.460;19.034;2023-03-03T07:06:36;100695.16;;;8.04;73.32
57894;BME280;43710;47.460;19.034;2023-03-03T07:09:38;100707.41;;;7.99;73.87
57894;BME280;43710;47.460;19.034;2023-03-03T07:12:40;100704.47;;;8.01;71.70
57894;BME280;43710;47.460;19.034;2023-03-03T07:15:42;100708.56;;;8.09;72.27
57894;BME280;43710;47.460;19.034;2023-03-03T07:18:52;100705.63;;;8.10;72.67
57894;BME280;43710;47.460;19.034;2023-03-03T07:21:55;100714.94;;;8.08;71.70
57894;BME280;43710;47.460;19.034;2023-03-03T07:24:59;100715.41;;;8.32;85.30
57894;BME280;43710;47.460;19.034;2023-03-03T07:28:22;100719.38;;;8.29;78.34
57894;BME280;43710;47.460;19.034;2023-03-03T07:31:33;100720.69;;;8.21;82.13
57894;BME280;43710;47.460;19.034;2023-03-03T07:34:39;100721.78;;;8.26;89.57
57894;BME280;43710;47.460;19.034;2023-03-03T07:37:45;100724.31;;;8.42;86.15
57894;BME280;43710;47.460;19.034;2023-03-03T07:40:55;100723.72;;;8.35;79.64
57894;BME280;43710;47.460;19.034;2023-03-03T07:44:06;100725.59;;;8.35;73.52
57894;BME280;43710;47.460;19.034;2023-03-03T07:47:29;100720.56;;;8.43;72.18
57894;BME280;43710;47.460;19.034;2023-03-03T07:50:32;100730.84;;;8.24;72.00
57894;BME280;43710;47.460;19.034;2023-03-03T07:53:35;100725.63;;;8.40;71.41
57894;BME280;43710;47.460;19.034;2023-03-03T07:56:39;100722.72;;;8.41;72.11
57894;BME280;43710;47.460;19.034;2023-03-03T08:03:00;100730.62;;;8.31;72.35
57894;BME280;43710;47.460;19.034;2023-03-03T08:09:38;100727.63;;;8.60;71.52
57894;BME280;43710;47.460;19.034;2023-03-03T08:12:45;100723.50;;;8.84;94.07
57894;BME280;43710;47.460;19.034;2023-03-03T08:15:50;100724.59;;;8.88;76.88
57894;BME280;43710;47.460;19.034;2023-03-03T08:18:54;100717.66;;;8.92;75.33
57894;BME280;43710;47.460;19.034;2023-03-03T08:22:12;100724.59;;;8.88;73.36
57894;BME280;43710;47.460;19.034;2023-03-03T08:25:16;100724.34;;;9.00;72.90
57894;BME280;43710;47.460;19.034;2023-03-03T08:28:19;100715.00;;;8.98;75.50
57894;BME280;43710;47.460;19.034;2023-03-03T08:31:22;100727.91;;;9.11;80.56
57894;BME280;43710;47.460;19.034;2023-03-03T08:34:41;100722.97;;;9.60;87.83
57894;BME280;43710;47.460;19.034;2023-03-03T08:37:44;100719.16;;;9.41;71.81
57894;BME280;43710;47.460;19.034;2023-03-03T08:40:47;100716.13;;;9.17;72.12
57894;BME280;43710;47.460;19.034;2023-03-03T08:43:50;100713.53;;;9.27;72.40
57894;BME280;43710;47.460;19.034;2023-03-03T08:46:52;100712.16;;;9.25;70.75
57894;BME280;43710;47.460;19.034;2023-03-03T08:49:55;100715.91;;;9.29;71.93
57894;BME280;43710;47.460;19.034;2023-03-03T08:52:57;100716.19;;;9.32;71.33
57894;BME280;43710;47.460;19.034;2023-03-03T08:56:00;100719.19;;;9.51;71.06
57894;BME280;43710;47.460;19.034;2023-03-03T08:59:02;100711.94;;;9.57;75.45
57894;BME280;43710;47.460;19.034;2023-03-03T09:02:05;100716.53;;;9.67;71.65
57894;BME280;43710;47.460;19.034;2023-03-03T09:05:08;100717.06;;;9.69;70.55
57894;BME280;43710;47.460;19.034;2023-03-03T09:08:11;100714.94;;;9.76;71.25
57894;BME280;43710;47.460;19.034;2023-03-03T09:11:22;100715.72;;;9.76;70.13
57894;BME280;43710;47.460;19.034;2023-03-03T09:14:28;100716.81;;;9.85;72.90
57894;BME280;43710;47.460;19.034;2023-03-03T09:17:34;100710.12;;;9.93;69.59
57894;BME280;43710;47.460;19.034;2023-03-03T09:20:45;100709.34;;;9.98;68.04
57894;BME280;43710;47.460;19.034;2023-03-03T09:23:56;100710.69;;;10.00;68.99
57894;BME280;43710;47.460;19.034;2023-03-03T09:26:59;100707.19;;;9.95;67.25
57894;BME280;43710;47.460;19.034;2023-03-03T09:30:59;100706.91;;;9.96;68.92
57894;BME280;43710;47.460;19.034;2023-03-03T09:33:44;100704.25;;;10.01;68.77
57894;BME280;43710;47.460;19.034;2023-03-03T09:36:48;100712.28;;;10.17;68.99
57894;BME280;43710;47.460;19.034;2023-03-03T09:39:53;100712.03;;;10.28;67.71
57894;BME280;43710;47.460;19.034;2023-03-03T09:43:11;100709.84;;;10.46;68.40
57894;BME280;43710;47.460;19.034;2023-03-03T09:53:15;100718.16;;;10.44;66.31
57894;BME280;43710;47.460;19.034;2023-03-03T10:06:07;100713.06;;;10.48;66.02
57894;BME280;43710;47.460;19.034;2023-03-03T10:19:35;100699.25;;;10.95;67.79
57894;BME280;43710;47.460;19.034;2023-03-03T10:33:04;100687.75;;;10.90;64.28
57894;BME280;43710;47.460;19.034;2023-03-03T10:39:40;100681.50;;;11.10;64.06
57894;BME280;43710;47.460;19.034;2023-03-03T10:42:58;100680.06;;;11.22;64.31
57894;BME280;43710;47.460;19.034;2023-03-03T10:49:50;100670.50;;;11.50;62.16
57894;BME280;43710;47.460;19.034;2023-03-03T10:53:13;100659.31;;;11.38;65.39
57894;BME280;43710;47.460;19.034;2023-03-03T11:00:50;100653.94;;;11.38;68.32
57894;BME280;43710;47.460;19.034;2023-03-03T11:03:42;100653.13;;;11.43;63.21
57894;BME280;43710;47.460;19.034;2023-03-03T11:06:51;100658.13;;;11.55;62.59
57894;BME280;43710;47.460;19.034;2023-03-03T11:10:20;100652.28;;;11.47;61.72
57894;BME280;43710;47.460;19.034;2023-03-03T11:34:13;100612.12;;;12.01;60.01
57894;BME280;43710;47.460;19.034;2023-03-03T11:40:34;100601.44;;;12.19;61.99
57894;BME280;43710;47.460;19.034;2023-03-03T11:43:52;100597.09;;;12.23;61.66
57894;BME280;43710;47.460;19.034;2023-03-03T11:56:43;100580.75;;;12.20;58.73
57894;BME280;43710;47.460;19.034;2023-03-03T12:03:07;100576.47;;;12.19;59.97
57894;BME280;43710;47.460;19.034;2023-03-03T12:19:50;100561.47;;;12.37;61.08
57894;BME280;43710;47.460;19.034;2023-03-03T12:23:19;100562.44;;;12.46;62.48
57894;BME280;43710;47.460;19.034;2023-03-03T12:33:16;100551.03;;;12.54;58.65
57894;BME280;43710;47.460;19.034;2023-03-03T12:40:07;100532.34;;;13.01;74.69
57894;BME280;43710;47.460;19.034;2023-03-03T12:46:42;100539.88;;;13.17;64.82
57894;BME280;43710;47.460;19.034;2023-03-03T13:07:23;100533.88;;;12.88;55.70
57894;BME280;43710;47.460;19.034;2023-03-03T13:10:39;100536.56;;;12.88;56.39
57894;BME280;43710;47.460;19.034;2023-03-03T13:13:52;100532.75;;;12.75;55.11
57894;BME280;43710;47.460;19.034;2023-03-03T13:18:03;100539.56;;;12.86;54.85
57894;BME280;43710;47.460;19.034;2023-03-03T13:27:16;100523.06;;;12.55;53.64
57894;BME280;43710;47.460;19.034;2023-03-03T13:30:29;100524.16;;;12.92;74.51
57894;BME280;43710;47.460;19.034;2023-03-03T13:33:34;100523.66;;;13.23;67.83
57894;BME280;43710;47.460;19.034;2023-03-03T13:36:46;100522.94;;;13.36;67.67
57894;BME280;43710;47.460;19.034;2023-03-03T13:39:59;100520.47;;;13.39;56.16
57894;BME280;43710;47.460;19.034;2023-03-03T13:43:26;100510.22;;;13.42;58.58
57894;BME280;43710;47.460;19.034;2023-03-03T14:00:24;100500.09;;;13.33;53.35
57894;BME280;43710;47.460;19.034;2023-03-03T14:07:13;100502.81;;;13.14;67.94
57894;BME280;43710;47.460;19.034;2023-03-03T14:10:28;100502.72;;;13.20;57.53
57894;BME280;43710;47.460;19.034;2023-03-03T14:16:51;100489.13;;;13.11;60.66
57894;BME280;43710;47.460;19.034;2023-03-03T14:20:09;100493.38;;;12.98;60.12
57894;BME280;43710;47.460;19.034;2023-03-03T14:23:46;100492.34;;;12.94;53.99
57894;BME280;43710;47.460;19.034;2023-03-03T14:26:51;100481.34;;;13.09;60.56
57894;BME280;43710;47.460;19.034;2023-03-03T14:29:54;100478.16;;;13.26;56.02
57894;BME280;43710;47.460;19.034;2023-03-03T14:36:12;100472.53;;;12.71;49.99
57894;BME280;43710;47.460;19.034;2023-03-03T14:39:36;100482.91;;;12.78;49.68
57894;BME280;43710;47.460;19.034;2023-03-03T14:42:54;100474.25;;;13.00;61.16
57894;BME280;43710;47.460;19.034;2023-03-03T14:49:31;100470.41;;;12.87;50.15
57894;BME280;43710;47.460;19.034;2023-03-03T14:52:40;100459.84;;;12.90;51.29
57894;BME280;43710;47.460;19.034;2023-03-03T14:55:45;100466.84;;;12.91;51.46
57894;BME280;43710;47.460;19.034;2023-03-03T14:58:48;100474.19;;;12.86;49.46
57894;BME280;43710;47.460;19.034;2023-03-03T15:01:57;100472.09;;;12.83;49.24
57894;BME280;43710;47.460;19.034;2023-03-03T15:08:35;100466.28;;;12.76;49.41
57894;BME280;43710;47.460;19.034;2023-03-03T15:11:37;100468.75;;;12.72;50.53
57894;BME280;43710;47.460;19.034;2023-03-03T15:14:44;100477.03;;;12.76;55.52
57894;BME280;43710;47.460;19.034;2023-03-03T15:17:54;100477.75;;;12.81;53.15
57894;BME280;43710;47.460;19.034;2023-03-03T15:21:09;100471.72;;;12.70;50.17
57894;BME280;43710;47.460;19.034;2023-03-03T15:24:39;100474.78;;;12.64;49.45
57894;BME280;43710;47.460;19.034;2023-03-03T15:27:49;100482.72;;;12.55;48.83
57894;BME280;43710;47.460;19.034;2023-03-03T15:34:45;100486.19;;;12.37;49.00
57894;BME280;43710;47.460;19.034;2023-03-03T15:41:22;100482.03;;;12.26;49.30
57894;BME280;43710;47.460;19.034;2023-03-03T16:04:15;100498.78;;;12.17;49.89
57894;BME280;43710;47.460;19.034;2023-03-03T16:10:57;100504.16;;;12.17;49.59
57894;BME280;43710;47.460;19.034;2023-03-03T16:14:33;100509.72;;;12.26;53.14
